EST,Max TemperatureF,Mean TemperatureF,Min TemperatureF,Max Dew PointF,MeanDew PointF,Min DewpointF,Max Humidity, Mean Humidity, Min Humidity, Max Sea Level PressureIn, Mean Sea Level PressureIn, Min Sea Level PressureIn, Max VisibilityMiles, Mean VisibilityMiles, Min VisibilityMiles, Max Wind SpeedMPH, Mean Wind SpeedMPH, Max Gust SpeedMPH,PrecipitationIn, CloudCover, Events, WindDirDegrees
2013-2-1,30,22,15,14,5,0,53,44,34,30.00,29.70,29.41,10,10,10,21,15,34,0.00,1,,282
2013-2-2,24,16,8,21,6,-2,100,60,34,30.18,30.10,30.00,10,9,1,14,6,20,0.00,1,,272
2013-2-3,26,24,21,21,18,12,93,77,63,30.05,29.88,29.65,10,8,1,14,6,18,0.00,5,,17
2013-2-4,26,20,15,14,5,-6,79,51,35,29.83,29.66,29.59,10,10,10,26,12,37,0.00,2,,289
2013-2-5,21,16,10,10,-2,-8,79,47,30,30.02,29.97,29.82,10,10,10,22,12,31,0.00,0,,266
2013-2-6,35,26,17,25,14,-9,93,63,28,30.25,30.00,29.90,10,9,1,18,8,25,0.01,3,,324
2013-2-7,17,12,8,-2,-8,-15,57,41,25,30.58,30.47,30.25,10,10,10,10,6,17,0.00,0,,332
2013-2-8,23,16,10,19,12,-4,100,82,52,30.59,30.34,29.85,10,3,0,28,14,46,0.00,6,,43
2013-2-9,17,14,12,14,10,7,100,83,63,30.05,29.77,29.61,10,2,0,32,21,50,0.00,6,,2
2013-2-10,33,20,8,9,2,-2,92,47,25,30.33,30.25,30.05,10,10,0,14,7,21,0.00,0,,313
2013-2-11,42,22,3,43,24,-6,100,89,56,30.33,29.99,29.56,10,8,0,14,4,23,0.45,4,,213
2013-2-12,42,38,33,36,30,27,100,77,53,29.74,29.58,29.49,10,10,6,18,9,30,0.01,7,,267
2013-2-13,42,36,30,28,24,19,86,63,42,29.79,29.74,29.71,10,10,10,14,7,16,0.00,4,,272
2013-2-14,39,30,19,23,19,16,86,59,39,29.99,29.85,29.69,10,10,10,10,5,17,0.00,2,,345
2013-2-15,42,32,21,36,30,18,100,86,70,29.99,29.95,29.91,10,9,2,17,4,25,0.00,2,,203
2013-2-16,37,32,26,34,29,23,100,89,75,29.92,29.86,29.74,10,6,0,10,3,18,0.00,6,,354
2013-2-17,26,22,19,21,15,7,80,72,54,29.72,29.30,29.05,10,6,1,31,13,47,0.00,4,,323
2013-2-18,30,22,15,5,2,0,54,42,32,29.98,29.65,29.33,10,10,10,32,23,45,0.00,0,,279
2013-2-19,42,30,17,41,15,-2,93,56,30,30.07,29.97,29.65,10,10,7,18,11,25,0.16,2,,196
2013-2-20,44,36,28,43,27,14,100,70,51,29.61,29.49,29.39,10,9,2,24,15,30,0.27,5,,260
2013-2-21,35,29,23,27,16,9,80,62,47,30.09,29.76,29.59,10,10,4,18,12,25,0.00,3,,305
2013-2-22,35,32,28,23,20,19,74,63,52,30.36,30.30,30.10,10,10,10,15,9,23,0.00,1,,22
2013-2-23,35,30,26,30,26,21,100,80,69,30.35,30.22,30.04,10,10,2,15,7,20,0.00,7,,80
2013-2-24,32,30,28,30,29,23,100,94,80,30.04,29.86,29.77,10,4,0,17,10,26,0.00,7,,29
2013-2-25,37,28,19,23,17,12,100,65,38,30.23,30.07,29.87,10,10,10,10,6,20,0.15,0,,2
2013-2-26,37,29,21,28,24,19,100,77,48,30.35,30.31,30.23,10,10,10,9,2,,0.03,5,,147
2013-2-27,37,32,28,34,30,27,100,83,65,30.27,30.03,29.71,10,8,1,25,11,37,0.13,7,,67
2013-2-28,39,36,33,39,36,30,100,96,87,29.70,29.57,29.51,10,5,0,22,14,31,0.14,8,,63